createdAt,value
2022-11-18T00:03:44.371Z,97993.5
2022-11-18T00:09:20.918Z,97994
2022-11-18T00:14:57.063Z,97991.7
2022-11-18T00:20:34.731Z,97996.3
2022-11-18T00:26:10.504Z,98001.1
2022-11-18T00:31:47.362Z,97997.4
2022-11-18T00:37:46.827Z,98004.1
2022-11-18T00:43:23.257Z,98009.7
2022-11-18T00:49:22.826Z,98006.1
2022-11-18T00:54:56.901Z,97997.9
2022-11-18T01:00:33.427Z,97996.4
2022-11-18T01:06:11.985Z,97998
2022-11-18T01:11:47.744Z,97989.2
2022-11-18T01:17:24.431Z,97984.8
2022-11-18T01:23:06.074Z,97980.1
2022-11-18T01:28:47.036Z,97978
2022-11-18T01:34:26.186Z,97977
2022-11-18T01:40:06.931Z,97976.6
2022-11-18T01:46:05.875Z,97970.5
2022-11-18T01:51:39.245Z,97966.6
2022-11-18T01:57:16.564Z,97968.9
2022-11-18T02:02:53.225Z,97971.6
2022-11-18T02:08:29.005Z,97971.5
2022-11-18T02:14:04.499Z,97969.9
2022-11-18T02:19:39.799Z,97967.1
2022-11-18T02:25:14.386Z,97974.8
2022-11-18T02:30:51.100Z,97980.4
2022-11-18T02:36:26.497Z,97979.7
2022-11-18T02:42:02.286Z,97976
2022-11-18T02:47:59.444Z,97963.7
2022-11-18T02:53:32.946Z,97969.4
2022-11-18T02:59:19.008Z,97971
2022-11-18T03:05:05.402Z,97981.7
2022-11-18T03:10:42.730Z,97974.1
2022-11-18T03:16:18.849Z,97971.5
2022-11-18T03:21:54.548Z,97966.7
2022-11-18T03:27:30.972Z,97956.8
2022-11-18T03:33:07.918Z,97953
2022-11-18T03:38:46.799Z,97951.3
2022-11-18T03:44:22.501Z,97947.4
2022-11-18T03:49:57.597Z,97952.1
2022-11-18T03:55:42.121Z,97960.1
2022-11-18T04:01:22.556Z,97967.1
2022-11-18T04:07:46.766Z,97982
2022-11-18T04:13:34.883Z,97985.7
2022-11-18T04:20:05.785Z,97987.5
2022-11-18T04:25:48.134Z,97992.5
2022-11-18T04:31:24.869Z,97997.9
2022-11-18T04:37:00.696Z,97999.6
2022-11-18T04:42:37.611Z,97999.6
2022-11-18T04:48:34.757Z,97995.8
2022-11-18T04:54:14.262Z,97998.1
2022-11-18T04:59:53.364Z,98001.4
2022-11-18T05:05:32.889Z,98002
2022-11-18T05:11:10.728Z,97999
2022-11-18T05:16:48.416Z,98004.7
2022-11-18T05:22:25.025Z,98002.6
2022-11-18T05:28:02.006Z,98010.3
2022-11-18T05:33:38.097Z,98012.5
2022-11-18T05:39:13.646Z,98008.6
2022-11-18T05:44:59.317Z,98012.7
2022-11-18T05:50:34.921Z,98015.7
2022-11-18T05:56:11.354Z,98028.9
2022-11-18T06:01:47.104Z,98042
2022-11-18T06:07:24.242Z,98048.6
2022-11-18T06:13:00.625Z,98055.8
2022-11-18T06:18:35.567Z,98058.4
2022-11-18T06:24:10.923Z,98069.4
2022-11-18T06:29:47.965Z,98072
2022-11-18T06:35:24.514Z,98073.2
2022-11-18T06:41:02.542Z,98076.5
2022-11-18T06:47:00.593Z,98079.6
2022-11-18T06:52:34.876Z,98074.4
2022-11-18T06:58:11.991Z,98078.7
2022-11-18T07:03:50.246Z,98077
2022-11-18T07:09:27.964Z,98076.1
2022-11-18T07:15:04.944Z,98085.8
2022-11-18T07:20:40.942Z,98088.5
2022-11-18T07:26:16.802Z,98095.6
2022-11-18T07:31:52.573Z,98095.5
2022-11-18T07:37:28.731Z,98101
2022-11-18T07:43:05.067Z,98100.2
2022-11-18T07:49:03.153Z,98106.8
2022-11-18T07:54:36.720Z,98109.1
2022-11-18T08:00:12.719Z,98120
2022-11-18T08:05:48.961Z,98129.3
2022-11-18T08:11:47.966Z,98135.8
2022-11-18T08:17:39.106Z,98142.8
2022-11-18T08:23:49.844Z,98143.6
2022-11-18T08:29:30.054Z,98147.4
2022-11-18T08:35:12.086Z,98145.7
2022-11-18T08:40:48.680Z,98146.7
2022-11-18T08:46:32.495Z,98151.1
2022-11-18T08:52:07.905Z,98150
2022-11-18T08:57:47.982Z,98152
2022-11-18T09:03:24.399Z,98148.2
2022-11-18T09:09:19.532Z,98136.6
2022-11-18T09:15:16.253Z,98143.3
2022-11-18T09:20:57.714Z,98146.7
2022-11-18T09:26:34.746Z,98149
2022-11-18T09:32:11.192Z,98151.8
2022-11-18T09:37:48.720Z,98150.5
2022-11-18T09:43:53.865Z,98148
2022-11-18T09:49:35.062Z,98162.8
2022-11-18T09:55:12.095Z,98174.1
2022-11-18T10:00:49.374Z,98177.8
2022-11-18T10:06:25.011Z,98180.6
2022-11-18T10:12:05.312Z,98191.3
2022-11-18T10:17:48.685Z,98195.7
2022-11-18T10:23:23.687Z,98198.7
2022-11-18T10:29:00.795Z,98199.5
2022-11-18T10:34:37.743Z,98197.1
2022-11-18T10:40:38.172Z,98194.1
2022-11-18T10:46:43.347Z,98202
2022-11-18T10:52:19.940Z,98196.6
2022-11-18T10:58:00.147Z,98189.4
2022-11-18T11:05:07.199Z,98178.6
2022-11-18T11:10:53.253Z,98171.4
2022-11-18T11:16:33.647Z,98170.1
2022-11-18T11:22:10.192Z,98165.5
2022-11-18T11:28:18.227Z,98157.7
2022-11-18T11:33:53.648Z,98141.9
2022-11-18T11:39:29.761Z,98129.6
2022-11-18T11:45:05.013Z,98122.9
2022-11-18T11:51:05.866Z,98127.3
2022-11-18T11:56:41.256Z,98128.5
2022-11-18T12:02:16.053Z,98126.6
2022-11-18T12:07:53.782Z,98129.6
2022-11-18T12:13:32.476Z,98137.7
2022-11-18T12:19:10.316Z,98142.7
2022-11-18T12:24:48.650Z,98142.4
2022-11-18T12:30:44.882Z,98146.7
2022-11-18T12:36:22.773Z,98145.4
2022-11-18T12:41:58.854Z,98144.5
2022-11-18T12:47:33.839Z,98139.8
2022-11-18T12:53:09.049Z,98137
2022-11-18T12:58:45.865Z,98129.5
2022-11-18T13:04:20.997Z,98123.9
2022-11-18T13:09:56.306Z,98122.5
2022-11-18T13:15:31.688Z,98121.4
2022-11-18T13:21:08.635Z,98121
2022-11-18T13:26:48.648Z,98118.5
2022-11-18T13:32:36.821Z,98120.4
2022-11-18T13:38:12.622Z,98118.1
2022-11-18T13:43:54.821Z,98113.1
2022-11-18T13:49:37.235Z,98112.9
2022-11-18T13:55:13.145Z,98115.7
2022-11-18T14:00:48.622Z,98117.7
2022-11-18T14:06:24.170Z,98121.6
2022-11-18T14:12:08.052Z,98124.3
2022-11-18T14:17:43.069Z,98123.1
2022-11-18T14:23:18.129Z,98125.3
2022-11-18T14:28:54.370Z,98127.5
2022-11-18T14:34:30.599Z,98135.1
2022-11-18T14:40:05.696Z,98141
2022-11-18T14:45:40.950Z,98144.8
2022-11-18T14:51:43.014Z,98140.4
2022-11-18T14:57:31.160Z,98148.9
2022-11-18T15:03:08.338Z,98143.7
2022-11-18T15:08:52.945Z,98145.4
2022-11-18T15:14:29.275Z,98146.3
2022-11-18T15:20:07.187Z,98150.7
2022-11-18T15:25:42.649Z,98151
2022-11-18T15:31:20.550Z,98153.1
2022-11-18T15:36:58.888Z,98158.4
2022-11-18T15:42:52.175Z,98157.2
2022-11-18T15:48:27.887Z,98162.3
2022-11-18T15:54:03.051Z,98160
2022-11-18T15:59:42.177Z,98164
2022-11-18T16:05:17.970Z,98169.3
2022-11-18T16:10:53.155Z,98178.4
2022-11-18T16:16:28.289Z,98179.8
2022-11-18T16:22:16.455Z,98184.6
2022-11-18T16:27:51.450Z,98188.6
2022-11-18T16:33:27.159Z,98194.4
2022-11-18T16:39:02.523Z,98191.7
2022-11-18T16:44:37.626Z,98198.7
2022-11-18T16:50:12.560Z,98198.7
2022-11-18T16:55:47.749Z,98199.6
2022-11-18T17:01:30.620Z,98203.9
2022-11-18T17:07:12.438Z,98198.4
2022-11-18T17:12:48.455Z,98201.1
2022-11-18T17:18:23.703Z,98201.8
2022-11-18T17:23:59.087Z,98198.7
2022-11-18T17:29:34.465Z,98205.4
2022-11-18T17:35:09.642Z,98209.9
2022-11-18T17:40:45.742Z,98217.1
2022-11-18T17:46:24.847Z,98225.5
2022-11-18T17:52:04.331Z,98225.5
2022-11-18T17:57:41.513Z,98233.4
2022-11-18T18:03:19.343Z,98237.1
2022-11-18T18:08:54.315Z,98238.8
2022-11-18T18:14:29.104Z,98243.8
2022-11-18T18:20:04.359Z,98249
2022-11-18T18:25:42.124Z,98249.3
2022-11-18T18:31:17.456Z,98254
2022-11-18T18:36:52.424Z,98256.1
2022-11-18T18:42:28.818Z,98252.5
2022-11-18T18:48:04.332Z,98252.5
2022-11-18T18:53:43.769Z,98254.3
2022-11-18T18:59:28.145Z,98262.3
2022-11-18T19:05:09.281Z,98261.6
2022-11-18T19:10:44.189Z,98268.6
2022-11-18T19:16:28.703Z,98272.1
2022-11-18T19:22:03.750Z,98271.6
2022-11-18T19:27:39.348Z,98272
2022-11-18T19:33:15.003Z,98267.8
2022-11-18T19:38:53.350Z,98272
2022-11-18T19:44:29.577Z,98270.4
2022-11-18T19:50:05.200Z,98264.6
2022-11-18T19:55:49.567Z,98266.4
2022-11-18T20:01:26.580Z,98269.3
2022-11-18T20:07:06.306Z,98272.7
2022-11-18T20:13:05.348Z,98272.4
2022-11-18T20:18:49.070Z,98269.6
2022-11-18T20:24:25.627Z,98268.1
2022-11-18T20:30:03.530Z,98268.4
2022-11-18T20:35:39.340Z,98266.1
2022-11-18T20:41:16.244Z,98268.8
2022-11-18T20:46:55.970Z,98266.7
2022-11-18T20:52:32.934Z,98266.9
2022-11-18T20:58:10.411Z,98266.5
2022-11-18T21:03:46.354Z,98271.1
2022-11-18T21:09:32.997Z,98265.2
2022-11-18T21:15:24.065Z,98259.1
2022-11-18T21:21:01.440Z,98258.9
2022-11-18T21:26:49.411Z,98255.9
2022-11-18T21:32:36.369Z,98259.6
2022-11-18T21:38:11.314Z,98252.9
2022-11-18T21:44:07.148Z,98245
2022-11-18T21:49:50.287Z,98254.2
2022-11-18T21:55:26.985Z,98260.9
2022-11-18T22:01:05.370Z,98259
2022-11-18T22:06:42.038Z,98255.8
2022-11-18T22:12:17.501Z,98255.7
2022-11-18T22:17:52.951Z,98254.4
2022-11-18T22:23:36.125Z,98268.8
2022-11-18T22:29:34.481Z,98280.7
2022-11-18T22:35:10.213Z,98287.3
2022-11-18T22:40:54.874Z,98285.8
2022-11-18T22:46:30.742Z,98282
2022-11-18T22:52:05.901Z,98283.4
2022-11-18T22:57:40.788Z,98292.5
2022-11-18T23:03:16.109Z,98299.1
2022-11-18T23:08:51.244Z,98295.4
2022-11-18T23:14:26.694Z,98293.3
2022-11-18T23:20:01.880Z,98295.6
2022-11-18T23:25:37.059Z,98304.8
2022-11-18T23:31:12.185Z,98305.6
2022-11-18T23:36:47.695Z,98308.9
2022-11-18T23:42:31.563Z,98310.3
2022-11-18T23:48:06.956Z,98305.5
2022-11-18T23:53:48.353Z,98300.3
2022-11-18T23:59:23.936Z,98293.5
